Latest Weather Observations for Cooma Airport

IDN60801

Issued at 5:04 am EDT Tuesday 27 January 2015 (issued every 30 minutes, with the page automatically refreshed every 10 minutes)

About weather observations | Map of weather stations | Latest weather observations for NSW | Other Formats
Station Details ID: 070217 Name: COOMA AIRPORT AWS Lat: -36.29 Lon: 148.97 Height: 930.0 m
Data from the previous 72 hours. | See also: Recent months for locations in New South Wales
Date/Time
EDT
Temp
°C
App
Temp
°C
Dew
Point
Rel
Hum
%
Delta-T
°C
Wind Press
QNH
hPa
Press
MSL
hPa
Rain
since 9 am
mm
Dir
 
Spd
km/h
Gust
km/h
Spd
kts
Gust
kts
27/04:30am 9.6 7.7 9.1 97 0.3 ENE 9 15 5 8 1016.1 1011.8 0.0
27/04:00am 9.6 6.9 9.0 96 0.3 ESE 13 15 7 8 1016.2 1011.9 0.0
27/03:30am 10.1 7.7 8.7 91 0.7 ESE 11 13 6 7 1016.7 1012.3 0.0
27/03:00am 10.4 8.1 9.0 91 0.7 ENE 11 15 6 8 1016.7 1012.3 0.0
27/02:30am 10.4 8.5 9.0 91 0.7 ENE 9 13 5 7 1016.7 1012.3 0.0
27/02:00am 10.4 7.7 8.8 90 0.8 ENE 13 17 7 9 1017.0 1012.7 0.0
27/01:30am 10.5 7.8 8.9 90 0.8 ENE 13 19 7 10 1017.1 1012.8 0.0
27/01:00am 10.5 7.4 8.9 90 0.8 NE 15 20 8 11 1017.3 1013.0 0.0
27/12:30am 10.6 6.8 9.0 90 0.8 NE 19 26 10 14 1017.5 1013.2 0.0
27/12:00am 10.4 6.3 8.8 90 0.8 NE 20 28 11 15 1017.4 1013.1 0.0
 
Date/Time
EDT
Temp
°C
App
Temp
°C
Dew
Point
Rel
Hum
%
Delta-T
°C
Wind Press
QNH
hPa
Press
MSL
hPa
Rain
since 9 am
mm
Dir
 
Spd
km/h
Gust
km/h
Spd
kts
Gust
kts
26/11:30pm 10.4 6.6 9.0 91 0.7 NE 19 24 10 13 1017.4 1013.1 0.0
26/11:00pm 10.2 7.1 8.8 91 0.7 NE 15 20 8 11 1017.9 1013.6 0.0
26/10:30pm 10.2 6.3 8.6 90 0.8 NE 19 24 10 13 1017.9 1013.6 0.0
26/10:00pm 10.0 6.0 8.4 90 0.8 ENE 19 24 10 13 1017.9 1013.6 0.0
26/09:30pm 9.7 5.7 8.9 95 0.4 NE 20 26 11 14 1017.8 1013.5 0.0
26/09:00pm 9.8 5.7 8.6 92 0.6 ENE 20 26 11 14 1017.8 1013.5 0.0
26/08:30pm 10.0 5.6 8.8 92 0.6 ENE 22 28 12 15 1017.3 1013.0 0.0
26/08:00pm 10.1 6.7 9.0 93 0.6 ENE 17 20 9 11 1017.1 1012.8 0.0
26/07:30pm 10.7 6.5 8.1 84 1.3 ENE 20 28 11 15 1016.8 1012.5 0.0
26/07:00pm 10.9 6.2 7.8 81 1.6 ENE 22 30 12 16 1016.3 1012.0 0.0
26/06:49pm 10.9 6.1 7.4 79 1.8 ENE 22 30 12 16 1016.2 1011.9 0.0
26/06:30pm 11.3 5.9 7.8 79 1.8 NE 26 35 14 19 1016.0 1011.7 0.0
26/06:00pm 11.7 6.6 7.6 76 2.1 ENE 24 30 13 16 1015.7 1011.3 0.0
26/05:30pm 12.0 7.3 7.9 76 2.1 E 22 30 12 16 1015.6 1011.2 0.0
26/05:00pm 12.6 7.3 8.3 75 2.2 E 26 32 14 17 1015.5 1011.1 0.0
26/04:30pm 13.2 8.7 8.5 73 2.5 E 22 28 12 15 1015.6 1011.2 0.0
26/04:00pm 13.5 9.0 8.6 72 2.6 E 22 30 12 16 1015.3 1011.0 0.0
26/03:30pm 13.8 9.3 8.6 71 2.7 E 22 30 12 16 1015.2 1010.9 0.0
26/03:00pm 15.2 12.2 9.1 67 3.3 ESE 15 22 8 12 1015.0 1010.7 0.0
26/02:30pm 15.0 12.0 9.4 69 3.0 ENE 15 26 8 14 1015.1 1010.8 0.0
26/02:00pm 13.9 10.4 8.9 72 2.7 E 17 22 9 12 1015.2 1010.9 0.0
26/01:30pm 14.7 12.4 8.9 68 3.1 SSE 11 20 6 11 1015.5 1011.1 0.0
26/01:00pm 14.2 11.3 8.2 67 3.2 E 13 19 7 10 1015.5 1011.1 0.0
26/12:30pm 14.8 12.8 7.1 60 4.0 ENE 7 13 4 7 1015.6 1011.2 0.0
26/12:00pm 14.0 11.6 7.1 63 3.5 ESE 9 15 5 8 1015.8 1011.4 0.0
26/11:30am 14.1 12.0 6.7 61 3.8 ENE 7 13 4 7 1015.8 1011.4 0.0
26/11:00am 13.5 11.1 5.4 58 4.0 SE 7 13 4 7 1015.9 1011.6 0.0
26/10:30am 12.4 10.1 5.8 64 3.3 SSE 7 15 4 8 1016.1 1011.8 0.0
26/10:00am 11.2 7.5 4.7 64 3.1 S 13 20 7 11 1016.2 1011.9 0.0
26/09:30am 10.3 6.7 5.1 70 2.5 S 13 19 7 10 1016.3 1012.0 0.0
26/09:00am 9.6 5.9 4.4 70 2.4 S 13 17 7 9 1016.1 1011.8 0.2
26/08:30am 9.4 5.7 4.6 72 2.3 S 13 17 7 9 1015.9 1011.6 0.2
26/08:00am 9.1 5.0 4.3 72 2.2 S 15 19 8 10 1015.7 1011.3 0.2
26/07:48am 9.1 5.1 5.1 76 1.9 S 15 19 8 10 1015.7 1011.3 0.2
26/07:30am 8.7 5.2 5.4 80 1.6 SSW 13 19 7 10 1015.5 1011.1 0.2
26/07:00am 8.7 5.3 6.0 83 1.3 SSW 13 17 7 9 1015.1 1010.8 0.2
26/06:30am 8.7 4.9 5.6 81 1.5 S 15 19 8 10 1014.6 1010.2 0.2
26/06:00am 8.9 5.7 6.9 87 1.0 S 13 17 7 9 1014.2 1009.9 0.2
26/05:30am 9.0 5.9 7.3 89 0.8 S 13 17 7 9 1013.8 1009.4 0.2
26/05:00am 9.2 6.9 7.6 90 0.8 S 9 11 5 6 1013.5 1009.1 0.2
26/04:30am 9.5 6.9 7.9 90 0.8 SE 11 15 6 8 1013.3 1008.9 0.2
26/04:00am 9.7 7.6 8.3 91 0.7 SSE 9 11 5 6 1013.2 1008.8 0.2
26/03:36am 9.7 8.1 8.6 93 0.6 S 7 9 4 5 1013.3 1008.9 0.2
26/03:30am 9.6 7.5 8.4 92 0.6 SSW 9 13 5 7 1013.3 1008.9 0.2
26/03:00am 9.7 7.7 8.5 92 0.6 SSW 9 13 5 7 1013.3 1008.9 0.2
26/02:56am 9.7 7.6 8.3 91 0.7 SSW 9 13 5 7 1013.3 1008.9 0.2
26/02:30am 10.0 8.1 8.9 93 0.6 S 9 13 5 7 1013.0 1008.7 0.2
26/02:00am 10.3 8.0 8.9 91 0.7 SSW 11 15 6 8 1012.9 1008.6 0.2
26/01:30am 10.4 8.0 8.5 88 1.0 SSE 11 19 6 10 1012.8 1008.4 0.2
26/01:00am 10.5 7.7 8.6 88 1.0 S 13 19 7 10 1013.0 1008.7 0.2
26/12:30am 10.5 7.9 9.3 92 0.6 SSW 13 15 7 8 1013.0 1008.7 0.2
26/12:00am 10.4 8.2 9.5 94 0.5 SSW 11 17 6 9 1012.9 1008.6 0.2
 
Date/Time
EDT
Temp
°C
App
Temp
°C
Dew
Point
Rel
Hum
%
Delta-T
°C
Wind Press
QNH
hPa
Press
MSL
hPa
Rain
since 9 am
mm
Dir
 
Spd
km/h
Gust
km/h
Spd
kts
Gust
kts
25/11:30pm 10.1 7.9 9.3 95 0.4 SSW 11 15 6 8 1012.9 1008.6 0.2
25/11:00pm 9.9 7.7 9.3 96 0.3 SSW 11 15 6 8 1012.8 1008.4 0.2
25/10:30pm 9.5 7.0 8.4 93 0.6 SSW 11 13 6 7 1012.5 1008.1 0.2
25/10:21pm 9.9 7.5 8.7 92 0.6 SSW 11 15 6 8 1012.4 1008.0 0.2
25/10:00pm 10.8 8.3 9.7 93 0.6 S 13 17 7 9 1012.3 1007.9 0.2
25/09:43pm 10.9 8.5 10.1 95 0.4 S 13 19 7 10 1012.0 1007.6 0.2
25/09:30pm 10.6 8.1 9.8 95 0.4 S 13 17 7 9 1011.6 1007.2 0.2
25/09:00pm 11.1 8.3 10.0 93 0.6 SSW 15 20 8 11 1011.4 1007.0 0.2
25/08:30pm 11.9 8.4 10.1 89 1.0 SSW 19 24 10 13 1010.3 1005.9 0.2
25/08:00pm 13.7 10.1 10.5 81 1.8 SSW 20 28 11 15 1009.9 1005.4 0.2
25/07:30pm 16.2 11.7 10.1 67 3.4 SSW 24 32 13 17 1009.1 1004.7 0.2
25/07:28pm 16.6 12.0 9.8 64 3.7 SSW 24 32 13 17 1009.1 1004.7 0.2
25/07:00pm 21.6 16.8 2.8 29 9.4 WNW 17 30 9 16 1008.3 1003.9 0.2
25/06:30pm 22.4 17.0 1.4 25 10.2 WNW 19 30 10 16 1007.9 1003.4 0.2
25/06:00pm 22.8 17.0 2.3 26 10.2 WNW 22 33 12 18 1007.4 1002.9 0.2
25/05:30pm 23.1 16.1 2.0 25 10.4 WNW 28 39 15 21 1007.4 1002.9 0.2
25/05:00pm 23.7 17.9 2.5 25 10.7 WNW 22 37 12 20 1007.0 1002.5 0.2
25/04:30pm 24.3 17.9 3.0 25 10.8 W 26 35 14 19 1006.8 1002.3 0.2
25/04:00pm 24.2 17.9 3.5 26 10.6 WNW 26 37 14 20 1006.8 1002.3 0.2
25/03:30pm 24.5 18.7 4.3 27 10.5 W 24 39 13 21 1006.7 1002.2 0.2
25/03:00pm 24.1 17.7 5.0 29 10.1 W 28 44 15 24 1006.8 1002.3 0.2
25/02:47pm 24.1 17.5 4.0 27 10.4 W 28 46 15 25 1006.9 1002.4 0.2
25/02:30pm 24.0 17.8 4.4 28 10.2 WNW 26 39 14 21 1006.9 1002.4 0.2
25/02:00pm 24.6 18.2 5.4 29 10.2 W 28 46 15 25 1006.7 1002.2 0.2
25/01:30pm 24.5 19.0 7.6 34 9.3 W 26 41 14 22 1006.7 1002.2 0.2
25/01:00pm 23.9 19.0 6.7 33 9.3 WNW 22 35 12 19 1006.7 1002.2 0.2
25/12:30pm 23.4 18.0 6.2 33 9.2 WNW 24 39 13 21 1006.6 1002.1 0.2
25/12:00pm 23.0 17.0 7.1 36 8.6 WNW 28 43 15 23 1006.7 1002.2 0.2
25/11:30am 23.0 17.3 8.3 39 8.1 W 28 43 15 23 1006.7 1002.2 0.2
25/11:00am 22.6 16.2 9.4 43 7.5 WNW 33 52 18 28 1006.5 1002.0 0.2
25/10:42am 22.7 17.4 9.8 44 7.3 W 28 46 15 25 1006.3 1001.8 0.2
25/10:30am 22.4 16.3 10.5 47 6.8 W 33 44 18 24 1006.1 1001.7 0.2
25/10:17am 22.9 18.4 12.5 52 6.2 W 28 46 15 25 1006.1 1001.7 0.2
25/10:00am 22.6 18.0 12.3 52 6.1 WNW 28 43 15 23 1006.0 1001.5 0.0
25/09:30am 21.7 17.7 13.1 58 5.1 W 26 43 14 23 1006.3 1001.8 0.0
25/09:00am 21.7 20.1 13.9 61 4.7 WNW 15 24 8 13 1005.9 1001.4 -
25/08:30am 21.0 19.1 14.2 65 4.1 NW 17 30 9 16 1005.9 1001.4 -
25/08:00am 19.6 18.9 15.5 77 2.5 N 13 17 7 9 1006.0 1001.5 -
25/07:30am 18.8 17.8 15.5 81 2.0 N 15 20 8 11 1005.6 1001.1 -
25/07:00am 18.0 16.3 14.7 81 2.0 NNW 17 24 9 13 1005.3 1000.8 -
25/06:30am 17.2 16.2 15.5 90 1.0 NNW 15 20 8 11 1005.4 1000.9 -
25/06:00am 14.5 14.1 14.2 98 0.2 NNW 9 11 5 6 1005.5 1001.0 -
25/05:30am 14.3 14.8 12.9 91 0.8 SSE 2 9 1 5 1005.4 1000.9 -
25/05:00am 16.0 14.6 14.4 90 1.0 N 15 20 8 11 1005.3 1000.8 -
25/04:30am 16.9 16.2 15.4 91 0.9 N 13 19 7 10 1005.2 1000.7 -
25/04:00am 15.4 14.1 14.9 97 0.3 ENE 15 17 8 9 1005.6 1001.1 -
25/03:30am 15.4 13.7 14.6 95 0.5 NE 17 20 9 11 1005.8 1001.3 -
25/03:00am 16.2 14.4 15.4 95 0.5 ENE 19 20 10 11 1006.0 1001.5 -
25/02:30am 15.3 14.1 15.1 99 0.1 NE 15 17 8 9 1006.7 1002.2 -
25/02:00am 15.1 13.8 14.9 99 0.1 NE 15 17 8 9 1006.9 1002.4 3.0
25/01:30am 15.1 14.6 14.9 99 0.1 NNE 11 15 6 8 1007.4 1002.9 3.0
25/01:00am 15.3 14.1 15.1 99 0.1 NE 15 19 8 10 1007.4 1002.9 3.0
25/12:30am 15.7 15.0 15.5 99 0.1 ENE 13 17 7 9 1007.9 1003.4 3.0
25/12:00am 15.4 15.4 15.1 98 0.2 ENE 9 13 5 7 1008.3 1003.9 3.0
 
Date/Time
EDT
Temp
°C
App
Temp
°C
Dew
Point
Rel
Hum
%
Delta-T
°C
Wind Press
QNH
hPa
Press
MSL
hPa
Rain
since 9 am
mm
Dir
 
Spd
km/h
Gust
km/h
Spd
kts
Gust
kts
24/11:30pm 15.7 15.0 15.5 99 0.1 NE 13 17 7 9 1008.2 1003.8 3.0
24/11:00pm 15.6 15.2 15.3 98 0.2 ENE 11 15 6 8 1008.3 1003.9 3.0
24/10:30pm 15.6 14.5 15.4 99 0.1 NE 15 15 8 8 1008.6 1004.1 3.0
24/10:00pm 15.7 15.7 15.2 97 0.3 NE 9 13 5 7 1008.9 1004.4 3.0
24/09:30pm 15.9 15.9 15.3 96 0.4 NNE 9 11 5 6 1009.1 1004.7 3.0
24/09:00pm 16.3 15.9 15.3 94 0.6 N 11 15 6 8 1009.1 1004.7 3.0
24/08:30pm 16.7 15.6 15.4 92 0.8 NNE 15 20 8 11 1008.9 1004.4 3.0
24/08:00pm 17.0 15.9 15.2 89 1.1 NNE 15 20 8 11 1008.9 1004.4 3.0
24/07:30pm 17.3 15.9 15.6 90 1.0 NNE 17 20 9 11 1008.7 1004.2 3.0
24/07:00pm 17.9 17.7 16.8 93 0.7 NE 13 17 7 9 1008.9 1004.4 2.8
24/06:30pm 17.7 17.4 16.4 92 0.8 ESE 13 24 7 13 1009.0 1004.5 2.8
24/06:00pm 18.3 17.5 17.0 92 0.8 SSE 17 22 9 12 1009.1 1004.7 1.4
24/05:30pm 18.7 15.7 15.8 83 1.8 WSW 26 37 14 20 1008.4 1004.0 0.4
24/05:00pm 21.3 17.5 13.7 62 4.6 WNW 26 35 14 19 1008.1 1003.7 0.0
24/04:30pm 23.4 20.6 14.4 57 5.5 W 22 30 12 16 1007.5 1003.0 0.0
24/04:00pm 25.7 24.9 15.1 52 6.7 NW 13 20 7 11 1007.0 1002.5 0.0
24/03:30pm 25.8 24.3 14.3 49 7.1 W 15 20 8 11 1007.5 1003.0 0.0
24/03:00pm 27.4 25.7 14.8 46 7.9 WNW 17 28 9 15 1007.2 1002.8 0.0
24/02:30pm 25.9 25.2 15.3 52 6.7 WNW 13 20 7 11 1007.7 1003.2 0.0
24/02:00pm 27.9 26.6 14.9 45 8.2 WNW 15 24 8 13 1008.0 1003.5 0.0
24/01:30pm 28.2 27.5 16.5 49 7.5 NNW 15 26 8 14 1008.7 1004.2 0.0
24/01:00pm 26.1 23.9 14.9 50 7.0 NNW 20 32 11 17 1009.2 1004.8 0.0
24/12:30pm 26.2 25.8 16.2 54 6.4 NNW 13 20 7 11 1009.4 1005.0 0.0
24/12:00pm 24.3 23.5 16.0 60 5.3 NNW 15 20 8 11 1009.9 1005.4 0.0
24/11:30am 24.3 23.1 16.0 60 5.2 NNW 17 20 9 11 1010.2 1005.8 0.0
24/11:00am 24.3 23.6 15.5 58 5.5 NNW 13 24 7 13 1010.1 1005.7 0.0
24/10:30am 23.5 22.7 17.0 67 4.2 N 17 20 9 11 1010.1 1005.7 0.0
24/10:00am 22.4 22.0 18.0 76 2.9 NE 17 20 9 11 1010.3 1005.9 0.0
24/09:30am 20.9 19.7 17.1 79 2.4 NE 19 22 10 12 1010.3 1005.9 0.0
24/09:00am 21.6 21.5 18.8 84 1.8 NE 17 22 9 12 1010.3 1005.9 0.0
24/08:30am 19.6 18.8 18.4 93 0.8 NE 20 24 11 13 1010.1 1005.7 0.0
24/08:00am 18.0 18.3 17.8 99 0.1 NE 13 19 7 10 1010.2 1005.8 0.0
24/07:30am 17.3 17.3 17.1 99 0.1 NE 13 17 7 9 1010.1 1005.7 0.0
24/07:00am 17.2 17.1 17.0 99 0.1 NE 13 17 7 9 1010.0 1005.5 0.0
24/06:30am 17.1 16.2 16.9 99 0.1 NE 17 20 9 11 1009.8 1005.3 0.0
24/06:00am 17.1 16.6 16.9 99 0.1 NE 15 19 8 10 1009.8 1005.3 0.0
24/05:30am 17.0 16.1 16.8 99 0.1 NE 17 20 9 11 1009.7 1005.2 0.0

Other Formats:

Comma delimited format used in spreadsheet applications
http://www.bom.gov.au/fwo/IDN60801/IDN60801.94921.axf

JavaScript Object Notation format (JSON) in row-major order
http://www.bom.gov.au/fwo/IDN60801/IDN60801.94921.json